Victory City, Texas
Current Conditions -  °F | °C
As of 6:53 AM on Sunday 23 Nov 2014 (Local Time) from KTXK Reporting Station
Light Rain Light Rain  
Wind Chill: 16°   Ceiling: 1000
Heat Index: 16°   Visibility: 6mi
Dew Point: 16°   Wind: 3mph
Humidity: 100%   Direction: 180°S
Pressure: 29.61"   Gusts: NA
Location:  33.474°N, 94.2882°W
Report Text: KTXK 231253Z 18003KT 6SM -RA BR OVC010 16/16 A2961 RMK AO2 CIG 006V013 SLP023 P0003 T01610161
Loading
Personal Weather Stations






























Interactive Weather Map New forecast layout! Learn more

10-Day Weather Forecast

Advertisements
Track Severe Weather on mobile